Time;durP1;ratioP1;P1;durP2;ratioP2;P2;SDS_P1;SDS_P2;PMS_P1;PMS_P2;Temp;Humidity;BMP_temperature;BMP_pressure;BME280_temperature;BME280_humidity;BME280_pressure;Samples;Min_cycle;Max_cycle;Signal;HPM_P1;HPM_P2
2021/07/24 00:00:08;;;;;;;7.90;6.60;;;;;;;15.84;89.42;100005.02;1747887;82;20955;-76
2021/07/24 00:02:36;;;;;;;14.75;7.08;;;;;;;15.84;89.33;100006.34;1748125;82;21569;-78
2021/07/24 00:05:04;;;;;;;11.70;6.80;;;;;;;15.84;89.32;100011.66;1747672;82;21077;-77
2021/07/24 00:07:31;;;;;;;11.38;7.08;;;;;;;15.84;89.35;100012.50;1747817;82;21576;-77
2021/07/24 00:09:58;;;;;;;12.00;7.53;;;;;;;15.83;89.40;100012.61;1747563;82;21162;-78
2021/07/24 00:12:26;;;;;;;13.50;7.12;;;;;;;15.83;89.40;100018.77;1747732;82;21104;-77
2021/07/24 00:14:54;;;;;;;11.15;7.10;;;;;;;15.82;89.49;100018.86;1747543;82;21505;-78
2021/07/24 00:17:21;;;;;;;12.37;7.45;;;;;;;15.81;89.70;100019.81;1747563;82;21072;-78
2021/07/24 00:19:49;;;;;;;10.48;7.15;;;;;;;15.78;89.83;100018.66;1747582;82;21112;-78
2021/07/24 00:22:15;;;;;;;10.28;7.12;;;;;;;15.77;89.94;100015.62;1747820;82;21468;-78
2021/07/24 00:24:42;;;;;;;9.28;6.67;;;;;;;15.72;89.92;100015.91;1746592;82;21723;-80
2021/07/24 00:27:09;;;;;;;17.15;7.83;;;;;;;15.70;89.90;100018.64;1746264;82;21117;-79
2021/07/24 00:29:37;;;;;;;10.70;6.95;;;;;;;15.66;89.97;100022.39;1684256;84;21066;-79
2021/07/24 00:32:05;;;;;;;16.12;7.10;;;;;;;15.64;90.15;100016.31;1705727;84;21085;-78
2021/07/24 00:34:33;;;;;;;12.35;7.30;;;;;;;15.60;90.32;100016.59;1705478;84;21855;-82
2021/07/24 00:37:00;;;;;;;10.85;6.83;;;;;;;15.57;90.51;100022.94;1684478;85;21015;-82
2021/07/24 00:39:26;;;;;;;14.68;7.33;;;;;;;15.52;90.74;100017.91;1699416;84;21097;-81
2021/07/24 00:42:09;;;;;;;11.05;7.50;;;;;;;15.49;90.96;100015.92;1677234;85;21117;-81
2021/07/24 00:44:38;;;;;;;8.98;6.45;;;;;;;15.44;91.14;100016.67;1739574;82;21050;-82
2021/07/24 00:47:05;;;;;;;11.20;7.22;;;;;;;15.43;91.43;100016.27;1741093;81;21466;-83
2021/07/24 00:49:34;;;;;;;14.20;6.47;;;;;;;15.40;91.51;100017.79;1647756;85;21573;-80
2021/07/24 00:52:02;;;;;;;12.20;6.95;;;;;;;15.36;91.61;100013.60;1637533;86;21140;-79
2021/07/24 00:54:30;;;;;;;12.13;6.72;;;;;;;15.34;91.74;100018.14;1665921;86;21049;-80
2021/07/24 00:56:57;;;;;;;12.43;7.05;;;;;;;15.31;91.83;100019.17;1665846;86;21104;-78
2021/07/24 00:59:24;;;;;;;9.88;7.20;;;;;;;15.30;91.95;100017.48;1665743;86;21144;-78
2021/07/24 01:01:52;;;;;;;11.08;6.90;;;;;;;15.26;91.98;100016.80;1659691;85;21093;-80
2021/07/24 01:04:20;;;;;;;12.23;7.30;;;;;;;15.23;92.07;100020.96;1665898;86;21520;-78
2021/07/24 01:06:49;;;;;;;11.40;7.08;;;;;;;15.22;92.23;100019.23;1666001;86;21680;-78
2021/07/24 01:09:16;;;;;;;10.65;7.05;;;;;;;15.19;92.44;100018.09;1665969;86;21096;-78
2021/07/24 01:11:45;;;;;;;11.28;7.75;;;;;;;15.16;92.47;100018.28;1695579;84;21069;-78
2021/07/24 01:14:12;;;;;;;9.95;7.25;;;;;;;15.15;92.71;100020.53;1694812;84;21738;-78
2021/07/24 01:16:39;;;;;;;8.73;7.33;;;;;;;15.15;92.81;100025.00;1694282;84;21521;-77
2021/07/24 01:19:14;;;;;;;12.33;7.60;;;;;;;15.12;92.99;100023.37;1693835;84;22239;-78
2021/07/24 01:21:45;;;;;;;10.50;7.10;;;;;;;15.10;93.05;100018.62;1694326;84;21128;-79
2021/07/24 01:24:13;;;;;;;15.28;7.55;;;;;;;15.06;93.11;100020.59;1693841;84;22011;-79
2021/07/24 01:26:44;;;;;;;12.25;7.67;;;;;;;15.04;93.48;100020.30;1693913;84;21081;-79
2021/07/24 01:29:18;;;;;;;10.25;7.05;;;;;;;15.02;93.56;100019.08;1694227;84;21093;-78
2021/07/24 01:31:46;;;;;;;16.48;7.20;;;;;;;15.00;93.58;100020.08;1694221;84;21065;-76
2021/07/24 01:34:13;;;;;;;12.50;7.80;;;;;;;14.98;93.59;100028.62;1694129;84;21585;-78
2021/07/24 01:36:41;;;;;;;12.60;7.53;;;;;;;14.96;93.65;100031.83;1694142;84;21159;-77
2021/07/24 01:39:09;;;;;;;12.40;7.62;;;;;;;14.93;93.75;100028.00;1694810;83;21133;-78
2021/07/24 01:41:44;;;;;;;14.20;7.55;;;;;;;14.89;94.05;100029.52;1709215;83;21560;-78
2021/07/24 01:44:12;;;;;;;12.30;7.90;;;;;;;14.85;94.24;100018.69;1699285;84;21061;-77
2021/07/24 01:46:40;;;;;;;11.15;7.15;;;;;;;14.81;94.43;100026.42;1709452;83;21069;-78
2021/07/24 01:49:14;;;;;;;12.18;7.53;;;;;;;14.79;94.74;100027.02;1692005;84;21518;-77
2021/07/24 01:54:36;;;;;;;16.40;7.97;;;;;;;14.72;95.18;100029.59;1703208;84;28158;-79
2021/07/24 01:57:08;;;;;;;15.15;7.53;;;;;;;14.70;95.28;100028.84;1714155;80;20967;-80
2021/07/24 01:59:41;;;;;;;14.10;7.30;;;;;;;14.65;95.46;100022.48;1704383;84;20990;-81
2021/07/24 02:02:09;;;;;;;19.25;8.60;;;;;;;14.63;95.67;100027.45;1709932;83;21516;-79
2021/07/24 02:04:40;;;;;;;14.10;7.97;;;;;;;14.62;95.86;100026.60;1699478;84;21061;-80
2021/07/24 02:07:10;;;;;;;11.00;7.85;;;;;;;14.61;96.05;100020.09;1709424;83;21112;-76
2021/07/24 02:09:45;;;;;;;11.53;7.37;;;;;;;14.58;95.88;100025.53;1699450;84;21195;-76
2021/07/24 02:12:13;;;;;;;14.33;8.00;;;;;;;14.57;96.06;100034.44;1706547;83;21058;-74
2021/07/24 02:14:42;;;;;;;18.75;7.72;;;;;;;14.57;96.24;100027.81;1671845;84;21573;-73
2021/07/24 02:17:12;;;;;;;13.60;7.28;;;;;;;14.57;96.39;100028.66;1652298;85;21065;-74
2021/07/24 02:19:39;;;;;;;13.50;7.33;;;;;;;14.56;96.34;100026.08;1699127;84;21064;-74
2021/07/24 02:22:07;;;;;;;13.98;7.85;;;;;;;14.55;96.35;100024.39;1708856;83;21083;-75
2021/07/24 02:24:36;;;;;;;12.68;7.72;;;;;;;14.54;96.31;100030.17;1699085;84;21070;-74
2021/07/24 02:27:08;;;;;;;13.83;8.23;;;;;;;14.48;96.56;100022.03;1708861;83;21143;-76
2021/07/24 02:29:38;;;;;;;17.37;7.65;;;;;;;14.53;96.68;100028.88;1698993;84;21056;-76
2021/07/24 02:32:06;;;;;;;11.53;7.42;;;;;;;14.53;96.80;100027.55;1709285;83;21102;-75
2021/07/24 02:34:33;;;;;;;14.78;7.72;;;;;;;14.54;96.92;100030.58;1699293;84;21057;-74
2021/07/24 02:37:00;;;;;;;15.45;8.33;;;;;;;14.55;96.98;100029.69;1708913;83;21115;-75
2021/07/24 02:39:28;;;;;;;16.67;8.55;;;;;;;14.54;97.00;100030.58;1699421;83;21120;-74
2021/07/24 02:41:55;;;;;;;12.68;7.45;;;;;;;14.55;97.08;100032.34;1673491;83;21619;-76
2021/07/24 02:44:22;;;;;;;11.55;7.80;;;;;;;14.57;97.05;100033.96;1678714;85;21114;-73
2021/07/24 02:46:49;;;;;;;11.63;7.37;;;;;;;14.58;96.95;100029.52;1678713;85;21632;-74
2021/07/24 02:49:18;;;;;;;12.68;7.28;;;;;;;14.59;96.92;100032.56;1687152;84;21110;-71
2021/07/24 02:51:47;;;;;;;9.73;8.03;;;;;;;14.60;96.95;100027.63;1688346;84;21199;-72
2021/07/24 02:54:16;;;;;;;11.12;7.55;;;;;;;14.63;97.06;100034.08;1684136;84;21571;-74
2021/07/24 02:56:45;;;;;;;15.40;7.75;;;;;;;14.63;97.04;100032.31;1694794;83;21064;-73
2021/07/24 02:59:15;;;;;;;11.78;7.67;;;;;;;14.65;97.18;100034.41;1682721;84;21060;-74
2021/07/24 03:01:44;;;;;;;12.28;8.28;;;;;;;14.69;97.37;100038.58;1665307;85;21084;-72
2021/07/24 03:04:11;;;;;;;15.95;7.15;;;;;;;14.75;97.45;100042.70;1667021;85;21792;-74
2021/07/24 03:06:39;;;;;;;13.85;7.70;;;;;;;14.79;97.52;100041.59;1667330;85;21564;-75
2021/07/24 03:09:07;;;;;;;11.83;7.72;;;;;;;14.84;97.51;100043.51;1665932;85;21057;-76
2021/07/24 03:11:34;;;;;;;11.38;7.60;;;;;;;14.90;97.56;100043.14;1665685;85;21057;-74
2021/07/24 03:14:02;;;;;;;12.20;8.00;;;;;;;14.96;97.61;100045.09;1665292;85;21135;-74
2021/07/24 03:16:29;;;;;;;10.13;7.53;;;;;;;15.02;97.70;100036.77;1666667;85;21829;-76
2021/07/24 03:18:56;;;;;;;11.18;7.17;;;;;;;15.14;97.68;100037.86;1675763;85;21025;-78
2021/07/24 03:21:23;;;;;;;15.40;8.03;;;;;;;15.23;97.57;100038.20;1669434;85;21076;-74
2021/07/24 03:23:50;;;;;;;19.52;7.90;;;;;;;15.34;97.41;100044.19;1666576;85;21496;-75
2021/07/24 03:26:17;;;;;;;14.20;8.03;;;;;;;15.45;97.15;100043.58;1683244;84;21140;-76
2021/07/24 03:28:45;;;;;;;14.07;7.75;;;;;;;15.58;97.03;100049.03;1694635;83;21138;-75
2021/07/24 03:31:12;;;;;;;14.03;7.70;;;;;;;15.73;96.64;100050.34;1686555;84;21877;-76
2021/07/24 03:33:40;;;;;;;11.48;8.15;;;;;;;15.88;96.17;100043.72;1668712;85;21081;-75
2021/07/24 03:36:07;;;;;;;9.70;7.62;;;;;;;16.02;95.57;100050.37;1676988;85;21545;-77
2021/07/24 03:38:34;;;;;;;13.98;8.00;;;;;;;16.22;94.87;100053.59;1667433;85;21135;-76
2021/07/24 03:41:04;;;;;;;12.98;8.08;;;;;;;16.41;93.87;100054.18;1665574;84;21092;-76
2021/07/24 03:43:32;;;;;;;15.08;7.20;;;;;;;16.72;92.74;100042.92;1685891;84;21029;-77
2021/07/24 03:46:01;;;;;;;11.43;7.37;;;;;;;17.18;91.24;100051.95;1692811;84;21084;-78
2021/07/24 03:48:28;;;;;;;13.28;7.92;;;;;;;17.63;89.27;100049.84;1676295;84;21033;-75
2021/07/24 03:50:55;;;;;;;12.80;8.55;;;;;;;18.13;87.43;100048.22;1664932;86;21670;-76
2021/07/24 03:53:22;;;;;;;18.45;8.50;;;;;;;18.58;84.45;100049.91;1665027;86;21162;-75
2021/07/24 03:55:51;;;;;;;13.10;8.28;;;;;;;18.94;82.49;100054.08;1664798;84;21115;-76
2021/07/24 03:58:20;;;;;;;12.07;8.10;;;;;;;19.33;80.39;100041.42;1674353;84;22280;-76
2021/07/24 04:00:48;;;;;;;9.38;7.45;;;;;;;19.69;77.59;100052.48;1663934;86;21097;-75
2021/07/24 04:03:18;;;;;;;13.13;7.47;;;;;;;19.99;75.21;100055.10;1669696;84;21074;-77
2021/07/24 04:05:45;;;;;;;16.40;8.60;;;;;;;20.26;73.25;100056.95;1692990;84;21152;-76
2021/07/24 04:08:12;;;;;;;16.62;8.00;;;;;;;20.48;71.71;100055.28;1670695;84;21291;-76
2021/07/24 04:10:41;;;;;;;12.25;7.83;;;;;;;20.61;70.30;100042.63;1681806;84;21061;-76
2021/07/24 04:13:08;;;;;;;12.03;7.53;;;;;;;20.81;68.53;100046.87;1681557;84;20978;-76
2021/07/24 04:15:36;;;;;;;14.05;8.08;;;;;;;21.02;68.04;100046.45;1668337;86;21030;-74
2021/07/24 04:18:06;;;;;;;10.82;7.47;;;;;;;21.25;66.07;100045.89;1668598;86;21413;-75
2021/07/24 04:20:37;;;;;;;10.95;7.80;;;;;;;21.44;65.06;100045.27;1665440;86;21599;-75
2021/07/24 04:23:07;;;;;;;13.98;7.05;;;;;;;21.67;63.84;100050.49;1665360;86;21064;-75
2021/07/24 04:25:34;;;;;;;11.53;7.33;;;;;;;21.84;63.45;100041.88;1664757;86;21205;-76
2021/07/24 04:28:01;;;;;;;10.13;7.10;;;;;;;22.10;62.31;100046.82;1665223;84;21080;-76
2021/07/24 04:30:27;;;;;;;13.50;7.42;;;;;;;22.30;61.07;100043.29;1684198;84;21129;-76
2021/07/24 04:32:54;;;;;;;11.10;7.17;;;;;;;22.51;61.01;100039.70;1680353;84;21575;-76
2021/07/24 04:35:21;;;;;;;10.48;6.83;;;;;;;22.76;60.09;100041.90;1693238;84;21120;-77
2021/07/24 04:37:49;;;;;;;11.15;7.10;;;;;;;23.03;59.64;100043.13;1692881;84;21068;-77
2021/07/24 04:40:16;;;;;;;9.08;6.72;;;;;;;23.36;59.11;100043.72;1689163;84;21440;-76
2021/07/24 04:42:43;;;;;;;10.80;8.00;;;;;;;23.68;57.45;100039.89;1672911;85;21046;-76
2021/07/24 04:45:10;;;;;;;8.53;7.10;;;;;;;23.88;56.93;100046.97;1656915;85;21085;-76
2021/07/24 04:47:37;;;;;;;9.95;7.12;;;;;;;24.08;56.04;100043.71;1645441;86;21638;-76
2021/07/24 04:50:06;;;;;;;12.30;7.17;;;;;;;24.32;55.39;100044.56;1645663;86;21031;-77
2021/07/24 04:52:36;;;;;;;10.80;6.92;;;;;;;24.58;54.26;100043.92;1661474;85;21053;-77
2021/07/24 04:55:05;;;;;;;10.23;7.10;;;;;;;24.89;53.44;100038.58;1713396;82;21046;-75
2021/07/24 04:57:32;;;;;;;13.00;7.67;;;;;;;25.22;51.94;100039.45;1701044;82;21069;-75
2021/07/24 04:59:59;;;;;;;14.55;7.65;;;;;;;25.50;50.74;100038.86;1700993;81;21137;-77
2021/07/24 05:02:26;;;;;;;11.35;6.80;;;;;;;25.68;49.96;100040.19;1728924;82;21360;-77
2021/07/24 05:04:54;;;;;;;11.68;6.75;;;;;;;25.81;49.80;100035.20;1725188;82;21110;-77
2021/07/24 05:07:21;;;;;;;12.65;7.30;;;;;;;26.04;48.81;100037.42;1725487;82;21784;-76
2021/07/24 05:09:48;;;;;;;8.68;6.83;;;;;;;26.27;48.55;100034.55;1725152;82;21074;-76
2021/07/24 05:12:15;;;;;;;12.07;7.28;;;;;;;26.46;47.89;100036.14;1712380;82;21058;-76
2021/07/24 05:14:43;;;;;;;8.10;6.60;;;;;;;26.64;47.23;100033.87;1718496;82;21063;-77
2021/07/24 05:17:13;;;;;;;9.45;6.05;;;;;;;26.82;46.89;100033.25;1724608;82;21113;-77
2021/07/24 05:19:45;;;;;;;14.03;6.90;;;;;;;27.06;46.61;100034.35;1725257;82;21552;-76
2021/07/24 05:22:13;;;;;;;9.43;6.53;;;;;;;27.25;45.10;100032.71;1725863;82;21041;-76
2021/07/24 05:24:44;;;;;;;9.73;6.33;;;;;;;27.34;44.80;100030.35;1710644;82;21033;-77
2021/07/24 05:27:12;;;;;;;11.00;6.62;;;;;;;27.49;44.88;100028.33;1659903;85;21111;-79
2021/07/24 05:29:41;;;;;;;9.40;6.60;;;;;;;27.69;43.90;100026.13;1722530;82;21057;-76
2021/07/24 05:32:08;;;;;;;7.10;5.87;;;;;;;27.82;43.27;100030.01;1713696;82;21790;-76
2021/07/24 05:34:36;;;;;;;8.43;6.70;;;;;;;28.01;42.40;100027.46;1713074;82;21085;-77
2021/07/24 05:37:03;;;;;;;10.32;6.90;;;;;;;28.03;42.21;100026.78;1724103;82;21117;-75
2021/07/24 05:39:30;;;;;;;9.43;6.87;;;;;;;27.94;41.86;100030.53;1724637;82;21168;-77
2021/07/24 05:41:57;;;;;;;10.05;6.12;;;;;;;27.86;42.49;100031.91;1722732;81;21640;-76
2021/07/24 05:44:24;;;;;;;9.68;6.03;;;;;;;27.90;42.36;100026.47;1729065;82;21131;-76
2021/07/24 05:46:51;;;;;;;11.60;7.08;;;;;;;27.98;42.09;100029.17;1725708;82;21120;-75
2021/07/24 05:49:18;;;;;;;10.55;5.75;;;;;;;28.03;41.65;100030.01;1733910;82;21049;-78
2021/07/24 05:51:45;;;;;;;8.80;6.45;;;;;;;28.10;41.55;100031.00;1739330;82;21557;-86
2021/07/24 05:54:17;;;;;;;9.63;6.60;;;;;;;28.12;41.85;100030.33;1728225;80;21053;-89
2021/07/24 05:56:43;;;;;;;9.85;6.20;;;;;;;28.32;41.14;100032.63;1732286;81;21097;-85
2021/07/24 05:59:09;;;;;;;9.90;6.30;;;;;;;28.48;41.43;100024.98;1725661;82;21576;-85
2021/07/24 06:01:36;;;;;;;10.10;6.83;;;;;;;28.71;40.47;100031.83;1726265;82;21082;-87
2021/07/24 06:04:04;;;;;;;9.80;6.50;;;;;;;28.94;40.65;100030.03;1732486;82;21023;-86
2021/07/24 06:06:31;;;;;;;8.75;6.50;;;;;;;29.04;40.27;100029.27;1741422;82;21054;-86
2021/07/24 06:08:59;;;;;;;7.25;5.83;;;;;;;28.99;39.53;100027.62;1741315;82;22017;-85
2021/07/24 06:11:26;;;;;;;11.00;6.65;;;;;;;29.11;39.66;100029.44;1737137;80;21062;-86
2021/07/24 06:13:53;;;;;;;11.50;6.58;;;;;;;29.32;39.88;100032.00;1720925;82;21057;-87
2021/07/24 06:16:20;;;;;;;9.60;6.90;;;;;;;29.43;39.40;100024.28;1726570;82;21034;-87
2021/07/24 06:18:46;;;;;;;9.98;6.85;;;;;;;29.48;39.17;100025.92;1729563;82;21061;-85
2021/07/24 06:21:15;;;;;;;11.75;6.62;;;;;;;29.56;39.01;100028.23;1718051;82;21534;-86
2021/07/24 06:23:43;;;;;;;8.38;6.47;;;;;;;29.56;38.53;100025.52;1718147;82;21022;-86
2021/07/24 06:26:10;;;;;;;13.38;6.40;;;;;;;29.67;37.97;100033.23;1713403;83;21053;-86
2021/07/24 06:28:38;;;;;;;10.88;6.30;;;;;;;29.67;37.11;100030.52;1712919;83;21065;-87
2021/07/24 06:31:05;;;;;;;8.05;6.22;;;;;;;29.53;37.48;100031.33;1712504;83;21551;-87
2021/07/24 06:33:35;;;;;;;9.40;6.28;;;;;;;29.63;38.10;100030.55;1729660;82;21132;-86
2021/07/24 06:36:02;;;;;;;10.50;6.40;;;;;;;29.82;37.15;100027.36;1739954;82;21113;-86
2021/07/24 06:38:29;;;;;;;10.13;6.95;;;;;;;30.02;36.52;100030.89;1725509;82;20912;-87
2021/07/24 06:40:56;;;;;;;8.68;6.12;;;;;;;30.21;35.99;100034.43;1731787;81;21105;-86
2021/07/24 06:43:23;;;;;;;9.98;6.08;;;;;;;30.35;36.19;100037.37;1726409;77;20991;-81
2021/07/24 06:45:50;;;;;;;11.35;6.58;;;;;;;30.50;35.71;100034.94;1727968;80;21134;-87
2021/07/24 06:48:16;;;;;;;7.12;5.60;;;;;;;30.57;35.27;100035.03;1719213;82;21080;-82
2021/07/24 06:50:43;;;;;;;9.80;5.83;;;;;;;30.65;34.06;100039.02;1734804;82;21076;-83
2021/07/24 06:53:10;;;;;;;9.75;6.22;;;;;;;30.66;34.58;100033.89;1737396;82;21104;-83
2021/07/24 06:55:37;;;;;;;8.45;5.78;;;;;;;30.85;34.85;100035.72;1727464;82;21108;-83
2021/07/24 06:58:04;;;;;;;8.83;5.80;;;;;;;31.06;34.44;100037.13;1718326;83;22094;-81
2021/07/24 07:00:33;;;;;;;9.33;5.97;;;;;;;31.18;33.39;100029.83;1730642;82;21416;-84
2021/07/24 07:03:00;;;;;;;9.95;6.05;;;;;;;31.23;33.35;100030.08;1747141;82;21017;-84
2021/07/24 07:05:28;;;;;;;7.92;6.05;;;;;;;31.23;33.35;100030.08;1742228;82;21019;-84
2021/07/24 07:07:56;;;;;;;6.55;5.85;;;;;;;31.25;33.25;100034.81;1741918;82;21014;-83
2021/07/24 07:10:25;;;;;;;7.90;5.72;;;;;;;31.19;32.75;100035.58;1736490;82;21121;-88
2021/07/24 07:12:52;;;;;;;9.65;6.08;;;;;;;31.25;32.71;100037.53;1728587;82;21058;-84
2021/07/24 07:15:19;;;;;;;9.45;6.25;;;;;;;31.50;32.21;100038.85;1729996;82;21109;-84
2021/07/24 07:17:46;;;;;;;13.28;6.12;;;;;;;31.50;32.21;100038.85;1739505;82;21095;-87
2021/07/24 07:20:13;;;;;;;8.93;6.03;;;;;;;31.60;32.54;100036.31;1748109;82;21037;-85
2021/07/24 07:22:40;;;;;;;6.50;5.50;;;;;;;31.65;31.22;100036.04;1748255;82;21805;-84
2021/07/24 07:25:08;;;;;;;8.23;5.87;;;;;;;31.55;31.88;100036.38;1731103;82;21200;-85
2021/07/24 07:27:36;;;;;;;8.18;5.40;;;;;;;31.60;31.80;100037.68;1732556;82;21100;-86
2021/07/24 07:30:04;;;;;;;7.00;5.87;;;;;;;31.85;31.34;100037.56;1712057;82;21568;-84
2021/07/24 07:32:31;;;;;;;7.65;5.60;;;;;;;32.10;31.34;100039.88;1733121;82;21060;-85
2021/07/24 07:34:58;;;;;;;11.10;5.80;;;;;;;32.32;31.05;100043.34;1731863;82;21754;-83
2021/07/24 07:37:25;;;;;;;9.38;6.08;;;;;;;32.51;30.59;100039.07;1734504;82;21033;-85
2021/07/24 07:39:51;;;;;;;9.75;5.75;;;;;;;32.55;29.94;100038.47;1733630;82;21085;-85
2021/07/24 07:42:18;;;;;;;12.95;6.22;;;;;;;32.57;29.64;100034.19;1731598;82;21045;-87
2021/07/24 07:44:45;;;;;;;10.25;6.22;;;;;;;32.66;29.45;100039.78;1736389;82;21081;-85
2021/07/24 07:47:12;;;;;;;6.95;5.72;;;;;;;32.71;28.32;100041.37;1743861;82;21080;-85
2021/07/24 07:49:39;;;;;;;8.45;5.85;;;;;;;32.64;27.82;100039.66;1748316;82;21065;-86
2021/07/24 07:52:06;;;;;;;8.63;5.20;;;;;;;32.30;28.16;100042.70;1748573;82;21478;-85
2021/07/24 07:54:35;;;;;;;10.72;5.22;;;;;;;32.28;28.56;100041.56;1743665;82;21076;-84
2021/07/24 07:57:04;;;;;;;7.53;5.30;;;;;;;32.30;27.39;100044.06;1743568;82;21038;-85
2021/07/24 07:59:32;;;;;;;8.53;4.87;;;;;;;32.27;28.34;100046.67;1728537;82;21117;-84
2021/07/24 08:01:59;;;;;;;18.85;6.45;;;;;;;32.39;28.52;100046.45;1720742;82;21056;-85
2021/07/24 08:04:26;;;;;;;9.28;5.85;;;;;;;32.59;28.18;100034.30;1743160;82;21478;-85
2021/07/24 08:06:54;;;;;;;8.58;6.10;;;;;;;32.69;28.33;100032.55;1718165;83;21076;-87
2021/07/24 08:09:21;;;;;;;8.20;5.47;;;;;;;32.87;28.29;100039.34;1721239;82;21535;-85
2021/07/24 08:11:50;;;;;;;8.93;5.47;;;;;;;33.00;27.68;100035.30;1734040;81;21594;-85
2021/07/24 08:14:16;;;;;;;6.87;5.33;;;;;;;33.18;27.03;100038.84;1719782;82;21053;-83
2021/07/24 08:16:44;;;;;;;8.68;5.55;;;;;;;33.39;26.80;100035.09;1735538;82;21081;-85
2021/07/24 08:19:14;;;;;;;8.08;5.20;;;;;;;33.55;26.21;100033.31;1738966;82;21544;-85
2021/07/24 08:21:42;;;;;;;9.83;5.50;;;;;;;33.52;25.78;100041.92;1736011;82;21523;-83
2021/07/24 08:24:09;;;;;;;9.40;4.95;;;;;;;33.49;25.83;100042.86;1717573;82;21166;-84
2021/07/24 08:26:37;;;;;;;9.13;5.12;;;;;;;33.47;25.93;100036.23;1717888;83;21101;-84
2021/07/24 08:29:04;;;;;;;8.15;5.08;;;;;;;33.59;26.29;100032.38;1718619;82;21088;-88
2021/07/24 08:31:30;;;;;;;8.75;4.92;;;;;;;33.64;25.86;100033.45;1723846;82;21021;-82
2021/07/24 08:33:57;;;;;;;15.40;6.05;;;;;;;33.69;25.55;100036.08;1746338;82;21065;-83
2021/07/24 08:36:24;;;;;;;11.22;4.90;;;;;;;33.88;24.47;100039.31;1748521;82;21300;-85
2021/07/24 08:38:51;;;;;;;7.28;4.95;;;;;;;33.95;23.82;100040.14;1748173;82;21056;-85
2021/07/24 08:41:18;;;;;;;8.33;5.28;;;;;;;33.93;24.33;100035.41;1747997;82;21038;-92
2021/07/24 08:43:45;;;;;;;9.00;5.67;;;;;;;33.74;24.76;100037.64;1720944;82;21120;-84
2021/07/24 08:46:13;;;;;;;7.97;4.80;;;;;;;33.83;25.56;100039.95;1715009;83;21061;-84
2021/07/24 08:48:41;;;;;;;5.70;4.78;;;;;;;33.77;24.98;100039.95;1715322;83;21146;-86
2021/07/24 08:51:08;;;;;;;7.70;5.20;;;;;;;33.75;24.53;100036.08;1724064;82;21070;-91
2021/07/24 08:53:36;;;;;;;7.15;5.00;;;;;;;33.68;24.26;100035.22;1727199;82;21622;-89
2021/07/24 08:56:06;;;;;;;9.40;5.10;;;;;;;33.77;25.30;100035.84;1688486;83;21105;-87
2021/07/24 08:58:34;;;;;;;8.95;5.33;;;;;;;33.99;25.05;100035.94;1689620;83;21164;-92
2021/07/24 09:01:02;;;;;;;8.48;5.42;;;;;;;34.22;25.12;100040.14;1717782;82;22206;-92
2021/07/24 09:03:32;;;;;;;6.47;4.72;;;;;;;34.23;24.66;100041.80;1734989;79;20967;-86
2021/07/24 09:05:59;;;;;;;6.75;5.10;;;;;;;34.12;24.83;100043.82;1750697;79;21013;-79
2021/07/24 09:08:26;;;;;;;6.85;4.72;;;;;;;34.21;24.82;100043.91;1746053;82;21553;-87
2021/07/24 09:10:53;;;;;;;7.58;4.95;;;;;;;34.31;24.39;100045.69;1732432;82;21065;-84
2021/07/24 09:13:22;;;;;;;6.67;4.62;;;;;;;34.48;23.44;100036.48;1731873;82;21026;-86
2021/07/24 09:15:48;;;;;;;10.38;5.15;;;;;;;34.64;24.27;100037.92;1740760;82;21108;-85
2021/07/24 09:18:15;;;;;;;6.22;5.30;;;;;;;34.63;24.14;100037.09;1717647;82;21536;-80
2021/07/24 09:20:42;;;;;;;9.48;5.78;;;;;;;34.60;24.20;100033.41;1744940;82;21045;-82
2021/07/24 09:23:28;;;;;;;8.25;5.60;;;;;;;34.65;23.31;100036.89;1717420;82;21441;-83
2021/07/24 09:25:55;;;;;;;7.12;5.30;;;;;;;34.69;22.50;100029.91;1745948;82;21156;-86
2021/07/24 09:28:22;;;;;;;12.40;5.33;;;;;;;34.76;22.55;100029.34;1746760;82;21003;-82
2021/07/24 09:30:49;;;;;;;9.13;5.17;;;;;;;34.73;23.25;100029.78;1746653;82;21078;-85
2021/07/24 09:33:18;;;;;;;9.83;4.90;;;;;;;35.03;22.66;100029.21;1735093;82;21052;-78
2021/07/24 09:35:54;;;;;;;6.70;5.00;;;;;;;35.29;22.64;100031.82;1747900;82;20983;-86
2021/07/24 09:38:34;;;;;;;6.70;4.62;;;;;;;35.43;21.64;100027.59;1745841;82;21101;-87
2021/07/24 09:41:04;;;;;;;6.58;4.92;;;;;;;35.13;21.59;100024.11;1719908;82;26646;-85
2021/07/24 09:43:41;;;;;;;7.42;5.05;;;;;;;34.57;22.19;100028.88;1722038;77;21005;-84
2021/07/24 09:46:21;;;;;;;8.50;5.10;;;;;;;34.48;22.46;100031.84;1722987;83;21072;-84
2021/07/24 09:48:52;;;;;;;12.45;5.75;;;;;;;34.68;22.33;100030.97;1722918;83;20915;-81
2021/07/24 09:51:36;;;;;;;9.73;5.78;;;;;;;34.68;23.73;100026.33;1724063;82;22186;-85
2021/07/24 09:54:05;;;;;;;13.98;5.30;;;;;;;34.63;22.65;100021.22;1728177;82;21540;-86
2021/07/24 09:56:46;;;;;;;8.78;4.87;;;;;;;34.36;23.27;100022.64;1734298;82;21076;-84
2021/07/24 09:59:25;;;;;;;8.45;4.95;;;;;;;33.91;24.09;100022.48;1718568;82;21069;-88
2021/07/24 10:02:00;;;;;;;6.95;5.12;;;;;;;33.61;24.39;100024.32;1718188;83;21121;-86
2021/07/24 10:04:38;;;;;;;14.45;5.92;;;;;;;33.84;22.71;100018.92;1718262;83;21163;-87
2021/07/24 10:07:07;;;;;;;8.00;4.92;;;;;;;33.75;22.55;100003.31;1717966;83;21592;-88
2021/07/24 10:09:40;;;;;;;7.08;4.85;;;;;;;33.46;24.35;100027.73;1718348;83;21054;-84
2021/07/24 10:12:13;;;;;;;7.97;5.05;;;;;;;33.69;24.34;100023.26;1717899;83;21009;-86
2021/07/24 10:14:39;;;;;;;9.03;6.28;;;;;;;33.68;23.58;100025.66;1718342;83;21025;-87
2021/07/24 10:17:08;;;;;;;15.75;7.95;;;;;;;33.16;24.33;100022.66;1718165;83;21128;-88
2021/07/24 10:19:35;;;;;;;12.78;7.12;;;;;;;32.66;25.35;100023.95;1718586;83;21025;-87
2021/07/24 10:22:02;;;;;;;5.97;5.22;;;;;;;32.23;25.82;100027.67;1718123;83;21029;-88
2021/07/24 10:24:29;;;;;;;7.72;5.90;;;;;;;31.98;26.21;100026.81;1718055;83;21080;-88
2021/07/24 10:27:05;;;;;;;9.75;5.05;;;;;;;31.81;26.24;100025.38;1717920;83;21501;-89
2021/07/24 10:29:39;;;;;;;7.72;5.10;;;;;;;31.58;26.16;100023.42;1717805;83;21971;-88
2021/07/24 10:32:14;;;;;;;9.80;5.45;;;;;;;31.34;26.76;100030.92;1717515;83;21140;-89
2021/07/24 10:34:51;;;;;;;8.25;5.67;;;;;;;31.32;27.61;100027.55;1718156;83;21096;-89
2021/07/24 10:37:39;;;;;;;7.08;5.87;;;;;;;31.38;27.36;100026.76;1719598;82;21274;-89
2021/07/24 10:40:21;;;;;;;7.53;5.12;;;;;;;31.58;27.55;100021.53;1718070;83;21084;-87
2021/07/24 10:42:49;;;;;;;7.72;5.42;;;;;;;31.92;26.69;100024.84;1718186;83;21770;-86
2021/07/24 10:45:45;;;;;;;9.45;5.45;;;;;;;32.22;26.22;100028.73;1718015;83;21076;-88
2021/07/24 10:48:26;;;;;;;7.58;5.42;;;;;;;32.16;26.59;100031.75;1718156;82;21018;-89
2021/07/24 10:51:10;;;;;;;9.53;5.28;;;;;;;31.96;26.70;100030.25;1717244;83;21052;-90
2021/07/24 10:54:00;;;;;;;9.45;5.30;;;;;;;31.88;26.40;100024.91;1718221;82;21041;-90
2021/07/24 10:56:39;;;;;;;;;;;;;;;31.74;26.61;100029.94;1742625;82;21598;-92
2021/07/24 10:59:29;;;;;;;9.58;5.58;;;;;;;31.41;26.79;100026.42;1744593;82;20140;-88
2021/07/24 11:02:00;;;;;;;7.27;5.40;;;;;;;31.19;27.09;100026.05;1748166;82;21497;-91
2021/07/24 11:04:41;;;;;;;5.97;5.15;;;;;;;30.98;27.62;100023.64;1736802;82;21085;-90
2021/07/24 11:07:28;;;;;;;5.95;5.30;;;;;;;30.90;27.95;100022.42;1728800;82;21085;-89
2021/07/24 11:09:57;;;;;;;9.63;5.87;;;;;;;31.09;27.88;100020.42;1730021;82;21133;-89
2021/07/24 11:12:35;;;;;;;12.20;6.33;;;;;;;31.38;27.87;100020.48;1723534;82;21053;-89
2021/07/24 11:15:06;;;;;;;8.95;5.53;;;;;;;31.85;27.81;100018.51;1726482;82;21006;-89
2021/07/24 11:17:34;;;;;;;7.53;5.62;;;;;;;32.27;27.29;100022.16;1748162;82;20990;-86
2021/07/24 11:20:08;;;;;;;9.20;6.00;;;;;;;32.23;26.24;100023.59;1748282;82;21045;-89
2021/07/24 11:22:38;;;;;;;7.42;4.87;;;;;;;32.08;27.04;100021.53;1744465;76;21125;-88
2021/07/24 11:25:10;;;;;;;9.13;5.87;;;;;;;32.07;27.11;100022.55;1729158;76;20903;-90
2021/07/24 11:27:38;;;;;;;8.28;5.72;;;;;;;32.06;27.33;100013.55;1735132;77;21010;-88
2021/07/24 11:30:09;;;;;;;8.30;5.55;;;;;;;31.97;27.26;100019.66;1744439;82;21159;-89
2021/07/24 11:32:40;;;;;;;8.25;5.78;;;;;;;31.77;27.38;100018.64;1748347;82;21052;-90